Terminal Aerodrome Forecast
Issued by NWS Sioux Falls, SD

Home | Current Version | Previous Version | Graphics & Text | Print | Product List | Glossary Off
Versions: 1 2 3 4 5 6 7 8 9 10 11 12 13 14 15 16 17 18

000
FTUS43 KFSD 211720
TAFHON
TAF
KHON 211720Z 2118/2218 03009KT P6SM OVC120
     FM220000 06009KT P6SM BKN140
     FM220500 10008KT P6SM BKN100 PROB30 2212/2215 6SM -SN BKN025
     FM221500 15015G23KT P6SM OVC040=

USA.gov is the U.S. government's official web portal to all federal, state and local government web resources and services.